sensor_id;sensor_type;location;lat;lon;timestamp;temperature;humidity
26278;DHT22;14000;52.056;8.510;2022-08-25T12:31:20;33.10;99.90
26278;DHT22;14000;52.056;8.510;2022-08-25T12:33:53;32.90;99.90
26278;DHT22;14000;52.056;8.510;2022-08-25T12:36:31;33.00;99.90
26278;DHT22;14000;52.056;8.510;2022-08-25T12:39:20;33.40;99.90
26278;DHT22;14000;52.056;8.510;2022-08-25T12:42:03;33.40;99.90
26278;DHT22;14000;52.056;8.510;2022-08-25T12:44:45;33.70;99.90
26278;DHT22;14000;52.056;8.510;2022-08-25T12:49:48;33.00;99.90
26278;DHT22;14000;52.056;8.510;2022-08-25T12:52:20;33.00;99.90
26278;DHT22;14000;52.056;8.510;2022-08-25T12:54:54;33.00;99.90
26278;DHT22;14000;52.056;8.510;2022-08-25T12:57:41;32.70;99.90
26278;DHT22;14000;52.056;8.510;2022-08-25T13:02:54;32.00;99.90
26278;DHT22;14000;52.056;8.510;2022-08-25T13:05:35;32.00;99.90
26278;DHT22;14000;52.056;8.510;2022-08-25T13:11:36;32.40;99.90
26278;DHT22;14000;52.056;8.510;2022-08-25T13:14:42;32.20;99.90
26278;DHT22;14000;52.056;8.510;2022-08-25T13:17:09;31.90;99.90
26278;DHT22;14000;52.056;8.510;2022-08-25T13:19:35;31.90;99.90
26278;DHT22;14000;52.056;8.510;2022-08-25T13:22:09;31.90;99.90
26278;DHT22;14000;52.056;8.510;2022-08-25T13:24:40;32.00;99.90
26278;DHT22;14000;52.056;8.510;2022-08-25T13:27:08;32.20;99.90
26278;DHT22;14000;52.056;8.510;2022-08-25T13:29:50;32.30;99.90
26278;DHT22;14000;52.056;8.510;2022-08-25T13:32:30;32.40;99.90
26278;DHT22;14000;52.056;8.510;2022-08-25T13:35:14;32.40;99.90
26278;DHT22;14000;52.056;8.510;2022-08-25T13:37:40;32.50;99.90
26278;DHT22;14000;52.056;8.510;2022-08-25T13:42:42;32.60;99.90
26278;DHT22;14000;52.056;8.510;2022-08-25T13:45:19;32.50;99.90
26278;DHT22;14000;52.056;8.510;2022-08-25T13:47:46;32.20;99.90
26278;DHT22;14000;52.056;8.510;2022-08-25T13:50:33;31.90;99.90
26278;DHT22;14000;52.056;8.510;2022-08-25T13:53:10;32.00;99.90
26278;DHT22;14000;52.056;8.510;2022-08-25T13:55:50;32.20;99.90
26278;DHT22;14000;52.056;8.510;2022-08-25T13:58:25;32.40;99.90
26278;DHT22;14000;52.056;8.510;2022-08-25T14:01:11;32.40;99.90
26278;DHT22;14000;52.056;8.510;2022-08-25T14:03:40;32.20;99.90
26278;DHT22;14000;52.056;8.510;2022-08-25T14:08:41;31.80;99.90
26278;DHT22;14000;52.056;8.510;2022-08-25T14:11:26;31.60;99.90
26278;DHT22;14000;52.056;8.510;2022-08-25T14:14:11;31.40;99.90
26278;DHT22;14000;52.056;8.510;2022-08-25T14:16:51;31.30;99.90
26278;DHT22;14000;52.056;8.510;2022-08-25T14:19:21;31.60;99.90
26278;DHT22;14000;52.056;8.510;2022-08-25T14:21:48;31.80;99.90
26278;DHT22;14000;52.056;8.510;2022-08-25T14:24:16;31.90;99.90
26278;DHT22;14000;52.056;8.510;2022-08-25T14:26:43;32.10;99.90
26278;DHT22;14000;52.056;8.510;2022-08-25T14:29:10;32.10;99.90
26278;DHT22;14000;52.056;8.510;2022-08-25T14:31:39;32.10;99.90
26278;DHT22;14000;52.056;8.510;2022-08-25T14:34:29;32.20;99.90
26278;DHT22;14000;52.056;8.510;2022-08-25T14:36:57;31.90;99.90
26278;DHT22;14000;52.056;8.510;2022-08-25T14:39:25;31.90;99.90
26278;DHT22;14000;52.056;8.510;2022-08-25T14:41:51;32.00;99.90
26278;DHT22;14000;52.056;8.510;2022-08-25T14:44:16;32.10;99.90
26278;DHT22;14000;52.056;8.510;2022-08-25T14:46:53;31.90;99.90
26278;DHT22;14000;52.056;8.510;2022-08-25T14:49:24;31.80;99.90
26278;DHT22;14000;52.056;8.510;2022-08-25T14:51:55;31.50;99.90
26278;DHT22;14000;52.056;8.510;2022-08-25T14:54:25;31.30;99.90
26278;DHT22;14000;52.056;8.510;2022-08-25T14:56:51;31.20;99.90
26278;DHT22;14000;52.056;8.510;2022-08-25T14:59:17;31.10;99.90
26278;DHT22;14000;52.056;8.510;2022-08-25T15:01:43;30.90;99.90
26278;DHT22;14000;52.056;8.510;2022-08-25T15:04:14;30.90;99.90
26278;DHT22;14000;52.056;8.510;2022-08-25T15:06:41;30.80;99.90
26278;DHT22;14000;52.056;8.510;2022-08-25T15:09:09;30.70;99.90
26278;DHT22;14000;52.056;8.510;2022-08-25T15:11:44;30.80;99.90
26278;DHT22;14000;52.056;8.510;2022-08-25T15:14:12;30.80;99.90
26278;DHT22;14000;52.056;8.510;2022-08-25T15:16:45;30.80;99.90
26278;DHT22;14000;52.056;8.510;2022-08-25T15:19:14;30.80;99.90
26278;DHT22;14000;52.056;8.510;2022-08-25T15:21:41;30.70;99.90
26278;DHT22;14000;52.056;8.510;2022-08-25T15:24:09;30.70;99.90
26278;DHT22;14000;52.056;8.510;2022-08-25T15:26:45;30.60;99.90
26278;DHT22;14000;52.056;8.510;2022-08-25T15:29:11;30.50;99.90
26278;DHT22;14000;52.056;8.510;2022-08-25T15:31:37;30.50;99.90
26278;DHT22;14000;52.056;8.510;2022-08-25T15:34:05;30.40;99.90
26278;DHT22;14000;52.056;8.510;2022-08-25T15:36:32;30.30;99.90
26278;DHT22;14000;52.056;8.510;2022-08-25T15:38:57;30.20;99.90
26278;DHT22;14000;52.056;8.510;2022-08-25T15:41:23;30.20;99.90
26278;DHT22;14000;52.056;8.510;2022-08-25T15:43:49;30.20;99.90
26278;DHT22;14000;52.056;8.510;2022-08-25T15:46:18;30.30;99.90
26278;DHT22;14000;52.056;8.510;2022-08-25T15:48:45;30.40;99.90
26278;DHT22;14000;52.056;8.510;2022-08-25T15:51:11;30.50;99.90
26278;DHT22;14000;52.056;8.510;2022-08-25T15:53:37;30.50;99.90
26278;DHT22;14000;52.056;8.510;2022-08-25T15:56:04;30.50;99.90
26278;DHT22;14000;52.056;8.510;2022-08-25T15:58:31;30.50;99.90
26278;DHT22;14000;52.056;8.510;2022-08-25T16:00:57;30.30;99.90
26278;DHT22;14000;52.056;8.510;2022-08-25T16:03:22;30.30;99.90
26278;DHT22;14000;52.056;8.510;2022-08-25T16:05:49;30.20;99.90
26278;DHT22;14000;52.056;8.510;2022-08-25T16:08:15;30.20;99.90
26278;DHT22;14000;52.056;8.510;2022-08-25T16:10:42;30.20;99.90
26278;DHT22;14000;52.056;8.510;2022-08-25T16:13:09;30.20;99.90
26278;DHT22;14000;52.056;8.510;2022-08-25T16:15:35;30.10;99.90
26278;DHT22;14000;52.056;8.510;2022-08-25T16:18:02;30.20;99.90
26278;DHT22;14000;52.056;8.510;2022-08-25T16:20:30;30.20;99.90
26278;DHT22;14000;52.056;8.510;2022-08-25T16:22:56;30.10;99.90
26278;DHT22;14000;52.056;8.510;2022-08-25T16:25:25;30.00;99.90
26278;DHT22;14000;52.056;8.510;2022-08-25T16:27:51;30.00;99.90
26278;DHT22;14000;52.056;8.510;2022-08-25T16:30:17;30.10;99.90
26278;DHT22;14000;52.056;8.510;2022-08-25T16:32:43;30.10;99.90
26278;DHT22;14000;52.056;8.510;2022-08-25T16:35:09;30.10;99.90
26278;DHT22;14000;52.056;8.510;2022-08-25T16:37:35;30.00;99.90
26278;DHT22;14000;52.056;8.510;2022-08-25T16:40:01;30.00;99.90
26278;DHT22;14000;52.056;8.510;2022-08-25T16:42:27;30.00;99.90
26278;DHT22;14000;52.056;8.510;2022-08-25T16:44:53;29.90;99.90
26278;DHT22;14000;52.056;8.510;2022-08-25T16:47:19;29.80;99.90
26278;DHT22;14000;52.056;8.510;2022-08-25T16:49:45;29.70;99.90
26278;DHT22;14000;52.056;8.510;2022-08-25T16:52:11;29.70;99.90
26278;DHT22;14000;52.056;8.510;2022-08-25T16:54:56;29.70;99.90
26278;DHT22;14000;52.056;8.510;2022-08-25T16:57:43;29.70;99.90
26278;DHT22;14000;52.056;8.510;2022-08-25T17:00:12;29.60;99.90
26278;DHT22;14000;52.056;8.510;2022-08-25T17:02:39;29.60;99.90
26278;DHT22;14000;52.056;8.510;2022-08-25T17:05:05;29.50;99.90
26278;DHT22;14000;52.056;8.510;2022-08-25T17:07:32;29.40;99.90
26278;DHT22;14000;52.056;8.510;2022-08-25T17:09:58;29.40;99.90
26278;DHT22;14000;52.056;8.510;2022-08-25T17:12:24;29.40;99.90
26278;DHT22;14000;52.056;8.510;2022-08-25T17:14:50;29.30;99.90
26278;DHT22;14000;52.056;8.510;2022-08-25T17:17:17;29.20;99.90
26278;DHT22;14000;52.056;8.510;2022-08-25T17:19:42;29.20;99.90
26278;DHT22;14000;52.056;8.510;2022-08-25T17:22:08;29.20;99.90
26278;DHT22;14000;52.056;8.510;2022-08-25T17:24:39;29.20;99.90
26278;DHT22;14000;52.056;8.510;2022-08-25T17:27:04;29.20;99.90
26278;DHT22;14000;52.056;8.510;2022-08-25T17:29:31;29.20;99.90
26278;DHT22;14000;52.056;8.510;2022-08-25T17:31:58;29.30;99.90
26278;DHT22;14000;52.056;8.510;2022-08-25T17:34:23;29.30;99.90
26278;DHT22;14000;52.056;8.510;2022-08-25T17:36:50;29.30;99.90
26278;DHT22;14000;52.056;8.510;2022-08-25T17:39:16;29.20;99.90
26278;DHT22;14000;52.056;8.510;2022-08-25T17:41:42;29.20;99.90
26278;DHT22;14000;52.056;8.510;2022-08-25T17:44:09;29.20;99.90
26278;DHT22;14000;52.056;8.510;2022-08-25T17:46:36;29.10;99.90
26278;DHT22;14000;52.056;8.510;2022-08-25T17:49:02;29.00;99.90
26278;DHT22;14000;52.056;8.510;2022-08-25T17:51:28;29.00;99.90
26278;DHT22;14000;52.056;8.510;2022-08-25T17:53:53;28.90;99.90
26278;DHT22;14000;52.056;8.510;2022-08-25T17:56:21;28.90;99.90
26278;DHT22;14000;52.056;8.510;2022-08-25T17:58:47;28.90;99.90
26278;DHT22;14000;52.056;8.510;2022-08-25T18:01:19;28.80;99.90
26278;DHT22;14000;52.056;8.510;2022-08-25T18:03:45;28.80;99.90
26278;DHT22;14000;52.056;8.510;2022-08-25T18:06:13;28.70;99.90
26278;DHT22;14000;52.056;8.510;2022-08-25T18:08:39;28.60;99.90
26278;DHT22;14000;52.056;8.510;2022-08-25T18:11:05;28.50;99.90
26278;DHT22;14000;52.056;8.510;2022-08-25T18:13:31;28.50;99.90
26278;DHT22;14000;52.056;8.510;2022-08-25T18:15:58;28.30;99.90
26278;DHT22;14000;52.056;8.510;2022-08-25T18:18:23;28.30;99.90
26278;DHT22;14000;52.056;8.510;2022-08-25T18:20:49;28.20;99.90
26278;DHT22;14000;52.056;8.510;2022-08-25T18:23:15;28.10;99.90
26278;DHT22;14000;52.056;8.510;2022-08-25T18:25:41;28.00;99.90
26278;DHT22;14000;52.056;8.510;2022-08-25T18:28:07;27.90;99.90
26278;DHT22;14000;52.056;8.510;2022-08-25T18:30:33;27.90;99.90
26278;DHT22;14000;52.056;8.510;2022-08-25T18:32:59;27.80;99.90
26278;DHT22;14000;52.056;8.510;2022-08-25T18:35:25;27.70;99.90
26278;DHT22;14000;52.056;8.510;2022-08-25T18:37:51;27.70;99.90
26278;DHT22;14000;52.056;8.510;2022-08-25T18:40:36;27.60;99.90
26278;DHT22;14000;52.056;8.510;2022-08-25T18:43:05;27.50;99.90
26278;DHT22;14000;52.056;8.510;2022-08-25T18:45:45;27.40;99.90
26278;DHT22;14000;52.056;8.510;2022-08-25T18:48:16;27.30;99.90
26278;DHT22;14000;52.056;8.510;2022-08-25T18:50:43;27.20;99.90
26278;DHT22;14000;52.056;8.510;2022-08-25T18:53:11;27.20;99.90
26278;DHT22;14000;52.056;8.510;2022-08-25T18:55:38;27.10;99.90
26278;DHT22;14000;52.056;8.510;2022-08-25T18:58:04;27.00;99.90
26278;DHT22;14000;52.056;8.510;2022-08-25T19:00:31;26.80;99.90
26278;DHT22;14000;52.056;8.510;2022-08-25T19:02:59;26.70;99.90
26278;DHT22;14000;52.056;8.510;2022-08-25T19:05:28;26.60;99.90
26278;DHT22;14000;52.056;8.510;2022-08-25T19:07:56;26.50;99.90
26278;DHT22;14000;52.056;8.510;2022-08-25T19:10:22;26.40;99.90
26278;DHT22;14000;52.056;8.510;2022-08-25T19:12:47;26.20;99.90
26278;DHT22;14000;52.056;8.510;2022-08-25T19:15:13;26.10;99.90
26278;DHT22;14000;52.056;8.510;2022-08-25T19:17:40;25.90;99.90
26278;DHT22;14000;52.056;8.510;2022-08-25T19:20:06;25.80;99.90
26278;DHT22;14000;52.056;8.510;2022-08-25T19:22:33;25.70;99.90
26278;DHT22;14000;52.056;8.510;2022-08-25T19:24:59;25.60;99.90
26278;DHT22;14000;52.056;8.510;2022-08-25T19:27:24;25.40;99.90
26278;DHT22;14000;52.056;8.510;2022-08-25T19:29:50;25.30;99.90
26278;DHT22;14000;52.056;8.510;2022-08-25T19:32:16;25.20;99.90
26278;DHT22;14000;52.056;8.510;2022-08-25T19:34:44;25.10;99.90
26278;DHT22;14000;52.056;8.510;2022-08-25T19:37:14;24.90;99.90
26278;DHT22;14000;52.056;8.510;2022-08-25T19:39:42;24.80;99.90
26278;DHT22;14000;52.056;8.510;2022-08-25T19:42:08;24.80;99.90
26278;DHT22;14000;52.056;8.510;2022-08-25T19:44:36;24.70;99.90
26278;DHT22;14000;52.056;8.510;2022-08-25T19:47:03;24.60;99.90
26278;DHT22;14000;52.056;8.510;2022-08-25T19:49:32;24.50;99.90
26278;DHT22;14000;52.056;8.510;2022-08-25T19:52:00;24.40;99.90
26278;DHT22;14000;52.056;8.510;2022-08-25T19:54:39;24.30;99.90
26278;DHT22;14000;52.056;8.510;2022-08-25T19:57:06;24.20;99.90
26278;DHT22;14000;52.056;8.510;2022-08-25T19:59:35;24.20;99.90
26278;DHT22;14000;52.056;8.510;2022-08-25T20:02:01;24.10;99.90
26278;DHT22;14000;52.056;8.510;2022-08-25T20:04:27;24.00;99.90
26278;DHT22;14000;52.056;8.510;2022-08-25T20:06:53;23.80;99.90
26278;DHT22;14000;52.056;8.510;2022-08-25T20:09:20;23.80;99.90
26278;DHT22;14000;52.056;8.510;2022-08-25T20:11:46;23.70;99.90
26278;DHT22;14000;52.056;8.510;2022-08-25T20:14:12;23.60;99.90
26278;DHT22;14000;52.056;8.510;2022-08-25T20:16:38;23.50;99.90
26278;DHT22;14000;52.056;8.510;2022-08-25T20:19:04;23.40;99.90
26278;DHT22;14000;52.056;8.510;2022-08-25T20:21:32;23.30;99.90
26278;DHT22;14000;52.056;8.510;2022-08-25T20:23:58;23.20;99.90
26278;DHT22;14000;52.056;8.510;2022-08-25T20:26:43;23.10;99.90
26278;DHT22;14000;52.056;8.510;2022-08-25T20:29:10;23.10;99.90
26278;DHT22;14000;52.056;8.510;2022-08-25T20:31:37;23.00;99.90
26278;DHT22;14000;52.056;8.510;2022-08-25T20:34:03;22.90;99.90
26278;DHT22;14000;52.056;8.510;2022-08-25T20:36:29;22.80;99.90
26278;DHT22;14000;52.056;8.510;2022-08-25T20:38:56;22.80;99.90
26278;DHT22;14000;52.056;8.510;2022-08-25T20:41:22;22.70;99.90
26278;DHT22;14000;52.056;8.510;2022-08-25T20:43:47;22.70;99.90
26278;DHT22;14000;52.056;8.510;2022-08-25T20:46:14;22.60;99.90
26278;DHT22;14000;52.056;8.510;2022-08-25T20:48:40;22.60;99.90
26278;DHT22;14000;52.056;8.510;2022-08-25T20:51:07;22.60;99.90
26278;DHT22;14000;52.056;8.510;2022-08-25T20:53:38;22.50;99.90
26278;DHT22;14000;52.056;8.510;2022-08-25T20:56:08;22.40;99.90
26278;DHT22;14000;52.056;8.510;2022-08-25T20:58:36;22.40;99.90
26278;DHT22;14000;52.056;8.510;2022-08-25T21:01:05;22.40;99.90
26278;DHT22;14000;52.056;8.510;2022-08-25T21:03:31;22.30;99.90
26278;DHT22;14000;52.056;8.510;2022-08-25T21:05:57;22.20;99.90
26278;DHT22;14000;52.056;8.510;2022-08-25T21:08:22;22.20;99.90
26278;DHT22;14000;52.056;8.510;2022-08-25T21:10:48;22.10;99.90
26278;DHT22;14000;52.056;8.510;2022-08-25T21:13:13;22.00;99.90
26278;DHT22;14000;52.056;8.510;2022-08-25T21:15:39;21.90;99.90
26278;DHT22;14000;52.056;8.510;2022-08-25T21:18:05;21.90;99.90
26278;DHT22;14000;52.056;8.510;2022-08-25T21:20:31;21.80;99.90
26278;DHT22;14000;52.056;8.510;2022-08-25T21:22:58;21.80;99.90
26278;DHT22;14000;52.056;8.510;2022-08-25T21:25:24;21.80;99.90
26278;DHT22;14000;52.056;8.510;2022-08-25T21:27:49;21.80;99.90
26278;DHT22;14000;52.056;8.510;2022-08-25T21:30:15;21.70;99.90
26278;DHT22;14000;52.056;8.510;2022-08-25T21:32:41;21.60;99.90
26278;DHT22;14000;52.056;8.510;2022-08-25T21:35:07;21.60;99.90
26278;DHT22;14000;52.056;8.510;2022-08-25T21:37:33;21.60;99.90
26278;DHT22;14000;52.056;8.510;2022-08-25T21:39:58;21.60;99.90
26278;DHT22;14000;52.056;8.510;2022-08-25T21:42:24;21.50;99.90
26278;DHT22;14000;52.056;8.510;2022-08-25T21:44:50;21.50;99.90
26278;DHT22;14000;52.056;8.510;2022-08-25T21:47:17;21.50;99.90
26278;DHT22;14000;52.056;8.510;2022-08-25T21:49:43;21.40;99.90
26278;DHT22;14000;52.056;8.510;2022-08-25T21:52:09;21.40;99.90
26278;DHT22;14000;52.056;8.510;2022-08-25T21:54:34;21.40;99.90
26278;DHT22;14000;52.056;8.510;2022-08-25T21:57:02;21.30;99.90
26278;DHT22;14000;52.056;8.510;2022-08-25T21:59:32;21.20;99.90
26278;DHT22;14000;52.056;8.510;2022-08-25T22:02:01;21.20;99.90
26278;DHT22;14000;52.056;8.510;2022-08-25T22:04:27;21.20;99.90
26278;DHT22;14000;52.056;8.510;2022-08-25T22:06:54;21.10;99.90
26278;DHT22;14000;52.056;8.510;2022-08-25T22:09:20;21.00;99.90
26278;DHT22;14000;52.056;8.510;2022-08-25T22:11:46;21.00;99.90
26278;DHT22;14000;52.056;8.510;2022-08-25T22:14:13;20.90;99.90
26278;DHT22;14000;52.056;8.510;2022-08-25T22:16:39;20.90;99.90
26278;DHT22;14000;52.056;8.510;2022-08-25T22:19:08;20.80;99.90
26278;DHT22;14000;52.056;8.510;2022-08-25T22:21:34;20.80;99.90
26278;DHT22;14000;52.056;8.510;2022-08-25T22:24:00;20.70;99.90
26278;DHT22;14000;52.056;8.510;2022-08-25T22:26:28;20.70;99.90
26278;DHT22;14000;52.056;8.510;2022-08-25T22:28:55;20.70;99.90
26278;DHT22;14000;52.056;8.510;2022-08-25T22:31:21;20.70;99.90
26278;DHT22;14000;52.056;8.510;2022-08-25T22:33:48;20.60;99.90
26278;DHT22;14000;52.056;8.510;2022-08-25T22:36:20;20.60;99.90
26278;DHT22;14000;52.056;8.510;2022-08-25T22:38:47;20.60;99.90
26278;DHT22;14000;52.056;8.510;2022-08-25T22:41:13;20.60;99.90
26278;DHT22;14000;52.056;8.510;2022-08-25T22:43:39;20.50;99.90
26278;DHT22;14000;52.056;8.510;2022-08-25T22:46:06;20.50;99.90
26278;DHT22;14000;52.056;8.510;2022-08-25T22:48:32;20.50;99.90
26278;DHT22;14000;52.056;8.510;2022-08-25T22:51:10;20.40;99.90
26278;DHT22;14000;52.056;8.510;2022-08-25T22:53:38;20.40;99.90
26278;DHT22;14000;52.056;8.510;2022-08-25T22:56:06;20.30;99.90
26278;DHT22;14000;52.056;8.510;2022-08-25T22:58:32;20.40;99.90
26278;DHT22;14000;52.056;8.510;2022-08-25T23:00:58;20.30;99.90
26278;DHT22;14000;52.056;8.510;2022-08-25T23:03:25;20.30;99.90
26278;DHT22;14000;52.056;8.510;2022-08-25T23:05:52;20.20;99.90
26278;DHT22;14000;52.056;8.510;2022-08-25T23:08:18;20.10;99.90
26278;DHT22;14000;52.056;8.510;2022-08-25T23:10:52;20.10;99.90
26278;DHT22;14000;52.056;8.510;2022-08-25T23:13:19;20.00;99.90
26278;DHT22;14000;52.056;8.510;2022-08-25T23:15:47;20.00;99.90
26278;DHT22;14000;52.056;8.510;2022-08-25T23:18:14;20.00;99.90
26278;DHT22;14000;52.056;8.510;2022-08-25T23:20:40;19.90;99.90
26278;DHT22;14000;52.056;8.510;2022-08-25T23:23:24;19.90;99.90
26278;DHT22;14000;52.056;8.510;2022-08-25T23:25:50;19.90;99.90
26278;DHT22;14000;52.056;8.510;2022-08-25T23:28:16;19.90;99.90
26278;DHT22;14000;52.056;8.510;2022-08-25T23:30:42;19.90;99.90
26278;DHT22;14000;52.056;8.510;2022-08-25T23:33:08;19.80;99.90
26278;DHT22;14000;52.056;8.510;2022-08-25T23:35:39;19.80;99.90
26278;DHT22;14000;52.056;8.510;2022-08-25T23:38:05;19.80;99.90
26278;DHT22;14000;52.056;8.510;2022-08-25T23:40:31;19.70;99.90
26278;DHT22;14000;52.056;8.510;2022-08-25T23:42:58;19.70;99.90
26278;DHT22;14000;52.056;8.510;2022-08-25T23:45:24;19.70;99.90
26278;DHT22;14000;52.056;8.510;2022-08-25T23:47:49;19.80;99.90
26278;DHT22;14000;52.056;8.510;2022-08-25T23:50:15;19.70;99.90
26278;DHT22;14000;52.056;8.510;2022-08-25T23:52:41;19.70;99.90
26278;DHT22;14000;52.056;8.510;2022-08-25T23:55:06;19.60;99.90
26278;DHT22;14000;52.056;8.510;2022-08-25T23:57:32;19.70;99.90
26278;DHT22;14000;52.056;8.510;2022-08-25T23:59:58;19.70;99.90
